Atlantic City, NJ

2:49 AM EDT on October 23, 2014 (GMT -0400)
Millville Municipal | Change Station
CLOSE
Current Station
Airport
Location: Millville,
Elevation: 82 ft
Nearby Weather Stations

Elev 82 ft 39.37 °N, 75.08 °W | Updated 55 minutes ago

Overcast
Overcast
51 °F
Feels Like 51 °F
N
16
Wind Variable Wind from NW
Gusts 24 mph

Today
High -- | Low -- °F
--% Chance of Precip.
Yesterday
High -- | Low -- °F
Precip. -- in
7:15 AM 6:07 PM
Waning Crescent, 0% visible
Pressure 29.74 in
Visibility 10.0 miles
Clouds Few 1700 ft
Mostly Cloudy 2700 ft
Overcast 3300 ft
Dew Point 48 °F
Humidity 89%
Rainfall 0.00 in
Snow Depth Not available.
UV 0 out of 12
Pollen .30 out of 12
Air Quality Not available.
Flu Activity Sporadic
METAR KMIV 230554Z AUTO 32014G21KT 10SM FEW017 BKN027 OVC033 11/09 A2974 RMK AO2 RAE16 SLP069 P0000 6//// T01060089 10117 20106 56015 $

More Conditions Fewer Conditions

Pressure 29.74 in
Visibility 10.0 miles
Clouds Few 1700 ft
Mostly Cloudy 2700 ft
Overcast 3300 ft
Dew Point 48 °F
Humidity 89%
Rainfall 0.00 in
Snow Depth Not available.
UV 0 out of 12
Pollen .30 out of 12
Air Quality Not available.
Flu Activity Sporadic
METAR KMIV 230554Z AUTO 32014G21KT 10SM FEW017 BKN027 OVC033 11/09 A2974 RMK AO2 RAE16 SLP069 P0000 6//// T01060089 10117 20106 56015 $

More Conditions Fewer Conditions

10-Day Weather Forecast

Almanac

Astronomy

Oct. 23, 2014 Rise Set
Actual Time 7:15 AM EDT 6:07 PM EDT
Civil Twilight 6:48 AM EDT 6:34 PM EDT
Nautical Twilight 6:17 AM EDT 7:06 PM EDT
Astronomical Twilight 5:46 AM EDT 7:37 PM EDT
Moon 6:53 AM EDT 6:07 PM EDT
Length of Visible Light 11h 46m
Length of Day
10h 51m
Tomorrow will be 2m 24s shorter.
Waning Crescent, 0% of the Moon is Illuminated
Today
Waning Crescent
Oct 23
New
Oct 30
First Quarter
Nov 6
Full
Nov 14
Last Quarter

Today's Extremes

State Highs State Lows

Community

WunderPhotos

Upload Photos

1,764,194 photos uploaded!

Nearby

Snow Depth

Station Depth Elevation
No new snow has been reported.

Earthquake Activity

City Distance Mag. Time & Date
No recent earthquake activity has been reported nearby.
Minimum magnitude displayed is 2.5.

Coastal Water Temperatures

Place Temperature
No Stations Reporting

Nearby Weather Stations